createdAt,value
2022-08-08T00:01:13.573Z,20.26
2022-08-08T00:04:00.623Z,20.41
2022-08-08T00:06:39.083Z,20.22
2022-08-08T00:09:16.081Z,20.06
2022-08-08T00:12:07.214Z,20.28
2022-08-08T00:14:56.848Z,20.28
2022-08-08T00:17:58.594Z,19.99
2022-08-08T00:20:34.281Z,20.13
2022-08-08T00:23:08.497Z,20.16
2022-08-08T00:25:46.502Z,19.98
2022-08-08T00:28:38.923Z,19.67
2022-08-08T00:32:28.276Z,19.95
2022-08-08T00:34:57.494Z,19.78
2022-08-08T00:37:47.510Z,19.95
2022-08-08T00:41:09.988Z,19.89
2022-08-08T00:44:23.585Z,19.86
2022-08-08T00:47:23.542Z,19.79
2022-08-08T00:50:15.702Z,19.68
2022-08-08T00:52:54.581Z,19.87
2022-08-08T00:55:52.494Z,19.94
2022-08-08T00:59:00.962Z,19.81
2022-08-08T01:01:39.150Z,19.83
2022-08-08T01:04:41.999Z,19.85
2022-08-08T01:07:55.531Z,19.78
2022-08-08T01:10:44.953Z,19.72
2022-08-08T01:13:43.578Z,19.68
2022-08-08T01:16:49.776Z,19.63
2022-08-08T01:19:52.432Z,19.69
2022-08-08T01:22:58.855Z,19.65
2022-08-08T01:26:05.973Z,19.67
2022-08-08T01:29:23.973Z,19.72
2022-08-08T01:32:31.473Z,19.81
2022-08-08T01:35:12.998Z,19.69
2022-08-08T01:38:14.022Z,19.79
2022-08-08T01:40:54.249Z,19.73
2022-08-08T01:43:39.195Z,19.59
2022-08-08T01:46:24.958Z,19.71
2022-08-08T01:49:03.186Z,19.70
2022-08-08T01:52:29.459Z,19.66
2022-08-08T01:55:25.755Z,19.80
2022-08-08T01:58:12.265Z,19.80
2022-08-08T02:00:48.467Z,19.79
2022-08-08T02:03:57.400Z,19.81
2022-08-08T02:06:36.821Z,19.84
2022-08-08T02:10:01.974Z,19.70
2022-08-08T02:12:23.670Z,19.72
2022-08-08T02:14:59.641Z,19.64
2022-08-08T02:17:42.718Z,19.67
2022-08-08T02:21:00.667Z,19.64
2022-08-08T02:23:16.374Z,19.65
2022-08-08T02:25:50.911Z,19.55
2022-08-08T02:28:35.135Z,19.47
2022-08-08T02:31:43.669Z,19.33
2022-08-08T02:34:08.580Z,19.19
2022-08-08T02:36:47.869Z,19.23
2022-08-08T02:39:40.612Z,19.14
2022-08-08T02:42:47.882Z,19.03
2022-08-08T02:46:05.148Z,18.82
2022-08-08T02:49:38.080Z,18.78
2022-08-08T02:52:34.719Z,18.73
2022-08-08T02:55:39.125Z,18.80
2022-08-08T02:58:54.265Z,18.81
2022-08-08T03:01:59.762Z,18.78
2022-08-08T03:05:15.715Z,18.84
2022-08-08T03:08:37.377Z,18.79
2022-08-08T03:12:02.002Z,18.69
2022-08-08T03:15:59.073Z,18.80
2022-08-08T03:17:39.926Z,18.83
2022-08-08T03:20:10.524Z,18.51
2022-08-08T03:22:45.858Z,18.39
2022-08-08T03:25:18.793Z,18.24
2022-08-08T03:27:56.257Z,18.21
2022-08-08T03:30:24.971Z,18.22
2022-08-08T03:33:54.624Z,18.19
2022-08-08T03:35:59.713Z,18.09
2022-08-08T03:38:54.982Z,18.08
2022-08-08T03:42:12.359Z,17.99
2022-08-08T03:44:06.102Z,17.85
2022-08-08T03:46:47.103Z,17.91
2022-08-08T03:49:59.010Z,18.08
2022-08-08T03:52:08.381Z,18.30
2022-08-08T03:55:02.222Z,18.28
2022-08-08T03:58:31.181Z,18.20
2022-08-08T04:00:21.786Z,17.96
2022-08-08T04:03:03.374Z,17.94
2022-08-08T04:05:35.201Z,17.64
2022-08-08T04:08:06.849Z,17.42
2022-08-08T04:10:37.251Z,17.42
2022-08-08T04:13:17.509Z,17.32
2022-08-08T04:16:03.351Z,17.43
2022-08-08T04:18:37.053Z,17.29
2022-08-08T04:21:10.061Z,17.35
2022-08-08T04:24:12.280Z,17.34
2022-08-08T04:26:27.071Z,17.44
2022-08-08T04:29:03.558Z,17.36
2022-08-08T04:31:59.185Z,17.49
2022-08-08T04:34:20.110Z,17.49
2022-08-08T04:36:47.869Z,17.43
2022-08-08T04:40:04.127Z,17.41
2022-08-08T04:42:05.265Z,17.44
2022-08-08T04:44:33.953Z,17.65
2022-08-08T04:47:01.858Z,17.50
2022-08-08T04:50:01.016Z,17.49
2022-08-08T04:52:17.398Z,17.54
2022-08-08T04:54:50.732Z,17.61
2022-08-08T04:57:20.002Z,17.71
2022-08-08T04:59:49.478Z,17.87
2022-08-08T05:02:20.290Z,17.84
2022-08-08T05:04:56.490Z,17.80
2022-08-08T05:07:38.106Z,17.82
2022-08-08T05:10:12.739Z,17.79
2022-08-08T05:13:00.292Z,17.87
2022-08-08T05:15:31.438Z,17.75
2022-08-08T05:18:17.857Z,17.86
2022-08-08T05:20:50.251Z,17.86
2022-08-08T05:23:20.661Z,18.02
2022-08-08T05:25:49.815Z,18.17
2022-08-08T05:28:48.381Z,18.14
2022-08-08T05:31:19.467Z,18.22
2022-08-08T05:33:54.973Z,18.36
2022-08-08T05:36:28.249Z,18.38
2022-08-08T05:38:58.934Z,18.27
2022-08-08T05:41:27.996Z,18.52
2022-08-08T05:44:13.694Z,18.62
2022-08-08T05:46:42.838Z,18.68
2022-08-08T05:49:15.752Z,18.92
2022-08-08T05:51:48.730Z,18.78
2022-08-08T05:54:28.214Z,18.82
2022-08-08T05:57:12.519Z,18.85
2022-08-08T05:59:59.216Z,18.95
2022-08-08T06:02:48.657Z,19.09
2022-08-08T06:05:34.324Z,19.15
2022-08-08T06:08:10.157Z,19.30
2022-08-08T06:10:54.626Z,19.41
2022-08-08T06:13:23.494Z,19.61
2022-08-08T06:15:55.946Z,19.78
2022-08-08T06:18:25.177Z,19.94
2022-08-08T06:20:57.048Z,19.86
2022-08-08T06:23:39.712Z,20.01
2022-08-08T06:26:43.712Z,20.35
2022-08-08T06:29:26.598Z,20.26
2022-08-08T06:32:11.053Z,20.22
2022-08-08T06:34:56.703Z,20.40
2022-08-08T06:37:40.286Z,20.35
2022-08-08T06:40:16.094Z,20.72
2022-08-08T06:42:51.292Z,20.67
2022-08-08T06:45:23.027Z,20.87
2022-08-08T06:48:01.156Z,21.06
2022-08-08T06:50:33.755Z,21.09
2022-08-08T06:53:13.811Z,21.27
2022-08-08T06:55:43.360Z,21.11
2022-08-08T06:58:11.611Z,21.07
2022-08-08T07:00:41.250Z,21.36
2022-08-08T07:03:51.538Z,21.61
2022-08-08T07:06:06.437Z,21.55
2022-08-08T07:08:40.015Z,21.56
2022-08-08T07:11:22.229Z,21.58
2022-08-08T07:14:00.605Z,21.96
2022-08-08T07:16:51.189Z,21.60
2022-08-08T07:19:31.555Z,21.56
2022-08-08T07:22:05.656Z,21.64
2022-08-08T07:24:44.905Z,21.69
2022-08-08T07:27:17.151Z,21.60
2022-08-08T07:29:59.594Z,21.52
2022-08-08T07:32:31.385Z,21.92
2022-08-08T07:35:02.754Z,22.11
2022-08-08T07:37:56.552Z,22.10
2022-08-08T07:40:29.067Z,21.94
2022-08-08T07:42:59.484Z,22.26
2022-08-08T07:45:34.673Z,22.28
2022-08-08T07:48:15.439Z,22.56
2022-08-08T07:50:47.575Z,22.47
2022-08-08T07:53:52.797Z,22.81
2022-08-08T07:56:13.212Z,22.57
2022-08-08T07:58:45.298Z,22.62
2022-08-08T08:01:27.227Z,22.89
2022-08-08T08:04:17.661Z,22.97
2022-08-08T08:06:47.695Z,22.83
2022-08-08T08:09:24.858Z,23.02
2022-08-08T08:11:56.823Z,23.47
2022-08-08T08:14:31.744Z,23.57
2022-08-08T08:16:59.818Z,23.47
2022-08-08T08:19:45.537Z,23.47
2022-08-08T08:22:16.127Z,23.66
2022-08-08T08:24:59.054Z,24.06
2022-08-08T08:27:36.012Z,23.88
2022-08-08T08:30:03.866Z,24.01
2022-08-08T08:32:36.447Z,23.97
2022-08-08T08:35:05.243Z,23.95
2022-08-08T08:37:53.018Z,24.08
2022-08-08T08:40:25.050Z,24.19
2022-08-08T08:42:54.567Z,24.08
2022-08-08T08:45:23.486Z,24.37
2022-08-08T08:47:54.127Z,24.69
2022-08-08T08:50:33.909Z,24.73
2022-08-08T08:53:54.051Z,24.55
2022-08-08T08:56:01.455Z,24.85
2022-08-08T08:58:33.694Z,24.81
2022-08-08T09:01:08.428Z,24.99
2022-08-08T09:03:47.040Z,25.25
2022-08-08T09:06:28.391Z,25.33
2022-08-08T09:09:07.296Z,25.08
2022-08-08T09:12:01.676Z,25.16
2022-08-08T09:14:34.180Z,25.35
2022-08-08T09:17:11.579Z,25.52
2022-08-08T09:21:59.386Z,25.49
2022-08-08T09:22:31.297Z,25.41
2022-08-08T09:25:00.793Z,25.53
2022-08-08T09:27:57.691Z,25.73
2022-08-08T09:30:20.132Z,25.81
2022-08-08T09:33:12.753Z,25.90
2022-08-08T09:35:50.196Z,26.23
2022-08-08T09:38:32.647Z,26.06
2022-08-08T09:41:06.550Z,25.95
2022-08-08T09:44:05.276Z,25.95
2022-08-08T09:46:45.607Z,26.10
2022-08-08T09:49:42.499Z,25.85
2022-08-08T09:52:56.010Z,26.34
2022-08-08T09:55:08.496Z,26.38
2022-08-08T09:57:46.321Z,26.42
2022-08-08T10:00:53.155Z,26.24
2022-08-08T10:03:15.833Z,26.35
2022-08-08T10:05:48.105Z,26.17
2022-08-08T10:08:17.662Z,26.26
2022-08-08T10:10:50.988Z,26.71
2022-08-08T10:13:29.985Z,26.89
2022-08-08T10:16:03.787Z,26.59
2022-08-08T10:18:34.047Z,26.95
2022-08-08T10:21:08.249Z,27.20
2022-08-08T10:23:58.974Z,26.90
2022-08-08T10:26:59.298Z,26.92
2022-08-08T10:29:43.976Z,27.27
2022-08-08T10:32:48.649Z,27.14
2022-08-08T10:36:08.438Z,27.30
2022-08-08T10:38:10.801Z,27.72
2022-08-08T10:40:45.240Z,27.65
2022-08-08T10:43:14.263Z,27.67
2022-08-08T10:45:55.624Z,27.58
2022-08-08T10:48:35.937Z,27.75
2022-08-08T10:51:13.272Z,27.67
2022-08-08T10:53:56.371Z,27.73
2022-08-08T10:56:32.577Z,27.65
2022-08-08T10:59:06.209Z,27.67
2022-08-08T11:01:38.413Z,27.59
2022-08-08T11:04:10.511Z,28.17
2022-08-08T11:06:41.828Z,28.67
2022-08-08T11:09:19.767Z,28.27
2022-08-08T11:12:06.287Z,28.25
2022-08-08T11:14:50.608Z,28.42
2022-08-08T11:17:58.290Z,28.25
2022-08-08T11:20:14.081Z,28.39
2022-08-08T11:22:50.913Z,28.39
2022-08-08T11:25:23.002Z,28.36
2022-08-08T11:28:14.116Z,28.37
2022-08-08T11:30:52.676Z,28.23
2022-08-08T11:33:51.768Z,28.59
2022-08-08T11:36:15.465Z,28.42
2022-08-08T11:38:55.557Z,28.77
2022-08-08T11:41:24.822Z,28.82
2022-08-08T11:43:58.127Z,28.81
2022-08-08T11:46:30.477Z,28.87
2022-08-08T11:49:04.364Z,28.65
2022-08-08T11:51:39.672Z,28.74
2022-08-08T11:54:31.390Z,29.34
2022-08-08T11:57:14.479Z,29.05
2022-08-08T11:59:58.401Z,29.40
2022-08-08T12:02:33.649Z,29.55
2022-08-08T12:05:06.827Z,29.37
2022-08-08T12:07:46.671Z,29.84
2022-08-08T12:10:16.097Z,29.99
2022-08-08T12:12:48.625Z,30.17
2022-08-08T12:15:28.605Z,29.94
2022-08-08T12:17:56.496Z,29.89
2022-08-08T12:20:26.453Z,29.68
2022-08-08T12:22:57.164Z,29.79
2022-08-08T12:25:30.003Z,29.57
2022-08-08T12:28:15.464Z,29.51
2022-08-08T12:30:47.926Z,29.93
2022-08-08T12:33:19.474Z,29.92
2022-08-08T12:35:52.253Z,30.18
2022-08-08T12:38:30.427Z,30.44
2022-08-08T12:41:18.217Z,30.14
2022-08-08T12:43:59.809Z,30.37
2022-08-08T12:46:28.847Z,30.94
2022-08-08T12:51:59.333Z,30.66
2022-08-08T12:54:34.084Z,30.30
2022-08-08T12:57:14.928Z,30.35
2022-08-08T13:00:05.010Z,30.70
2022-08-08T13:02:36.161Z,31.33
2022-08-08T13:05:25.669Z,31.36
2022-08-08T13:08:03.043Z,31.41
2022-08-08T13:10:36.285Z,31.59
2022-08-08T13:13:07.995Z,31.31
2022-08-08T13:15:36.936Z,31.13
2022-08-08T13:18:11.370Z,30.95
2022-08-08T13:20:45.736Z,31.35
2022-08-08T13:23:30.650Z,31.38
2022-08-08T13:26:03.963Z,31.14
2022-08-08T13:28:42.380Z,31.48
2022-08-08T13:31:16.590Z,31.50
2022-08-08T13:33:47.342Z,31.19
2022-08-08T13:36:25.897Z,31.93
2022-08-08T13:39:00.444Z,31.36
2022-08-08T13:41:37.786Z,31.25
2022-08-08T13:44:11.543Z,31.30
2022-08-08T13:46:39.804Z,31.85
2022-08-08T13:50:39.398Z,31.78
2022-08-08T13:52:06.469Z,31.67
2022-08-08T13:54:44.068Z,31.80
2022-08-08T13:57:14.388Z,32.33
2022-08-08T13:59:48.235Z,32.10
2022-08-08T14:02:20.843Z,31.48
2022-08-08T14:04:57.132Z,31.96
2022-08-08T14:07:29.925Z,32.33
2022-08-08T14:10:11.669Z,32.30
2022-08-08T14:12:43.778Z,32.05
2022-08-08T14:15:31.540Z,32.19
2022-08-08T14:18:36.587Z,32.32
2022-08-08T14:21:03.794Z,31.56
2022-08-08T14:24:06.651Z,31.66
2022-08-08T14:26:33.232Z,31.94
2022-08-08T14:29:01.495Z,32.05
2022-08-08T14:31:37.183Z,32.26
2022-08-08T14:34:23.366Z,32.12
2022-08-08T14:36:57.505Z,31.91
2022-08-08T14:39:25.317Z,32.04
2022-08-08T14:42:16.864Z,31.84
2022-08-08T14:44:55.150Z,31.69
2022-08-08T14:47:23.388Z,31.63
2022-08-08T14:50:05.832Z,31.99
2022-08-08T14:52:49.934Z,31.37
2022-08-08T14:55:22.732Z,31.59
2022-08-08T14:58:12.061Z,31.65
2022-08-08T15:00:44.493Z,31.64
2022-08-08T15:03:16.047Z,31.41
2022-08-08T15:05:53.232Z,31.46
2022-08-08T15:08:34.565Z,31.79
2022-08-08T15:11:09.170Z,31.64
2022-08-08T15:14:01.130Z,31.36
2022-08-08T15:16:29.341Z,31.32
2022-08-08T15:19:03.094Z,31.65
2022-08-08T15:21:31.468Z,31.79
2022-08-08T15:23:59.698Z,31.64
2022-08-08T15:26:28.969Z,31.67
2022-08-08T15:28:58.601Z,31.03
2022-08-08T15:32:03.196Z,31.38
2022-08-08T15:34:18.461Z,31.56
2022-08-08T15:36:58.679Z,31.06
2022-08-08T15:39:28.851Z,31.38
2022-08-08T15:41:59.270Z,31.61
2022-08-08T15:44:29.490Z,30.79
2022-08-08T15:46:57.897Z,31.17
2022-08-08T15:49:26.633Z,31.63
2022-08-08T15:51:57.395Z,31.11
2022-08-08T15:54:38.389Z,30.99
2022-08-08T15:57:08.864Z,31.19
2022-08-08T16:00:05.099Z,31.10
2022-08-08T16:02:31.038Z,31.22
2022-08-08T16:04:59.824Z,31.12
2022-08-08T16:07:51.776Z,31.47
2022-08-08T16:13:10.007Z,31.66
2022-08-08T16:13:27.122Z,31.53
2022-08-08T16:15:58.897Z,31.62
2022-08-08T16:18:27.857Z,31.71
2022-08-08T16:21:00.296Z,31.42
2022-08-08T16:23:32.495Z,31.35
2022-08-08T16:26:04.370Z,31.41
2022-08-08T16:28:36.039Z,31.02
2022-08-08T16:31:08.225Z,31.01
2022-08-08T16:33:38.451Z,31.12
2022-08-08T16:36:09.699Z,31.37
2022-08-08T16:38:45.057Z,31.18
2022-08-08T16:41:18.414Z,31.31
2022-08-08T16:43:49.017Z,31.19
2022-08-08T16:46:38.493Z,31.03
2022-08-08T16:49:09.356Z,30.88
2022-08-08T16:55:00.965Z,30.94
2022-08-08T16:55:05.141Z,30.55
2022-08-08T16:58:11.741Z,30.46
2022-08-08T17:00:08.792Z,30.39
2022-08-08T17:02:44.681Z,30.62
2022-08-08T17:05:14.151Z,30.49
2022-08-08T17:07:42.300Z,30.50
2022-08-08T17:10:11.616Z,30.51
2022-08-08T17:12:46.836Z,30.53
2022-08-08T17:15:21.272Z,30.43
2022-08-08T17:18:02.772Z,30.12
2022-08-08T17:20:31.865Z,30.23
2022-08-08T17:23:18.166Z,30.28
2022-08-08T17:25:52.587Z,30.08
2022-08-08T17:28:34.942Z,30.04
2022-08-08T17:31:44.202Z,30.13
2022-08-08T17:34:48.250Z,30.14
2022-08-08T17:36:55.165Z,29.87
2022-08-08T17:40:03.322Z,29.87
2022-08-08T17:42:16.568Z,29.84
2022-08-08T17:44:46.585Z,29.78
2022-08-08T17:47:24.110Z,29.67
2022-08-08T17:50:01.058Z,29.57
2022-08-08T17:52:34.377Z,29.37
2022-08-08T17:55:05.502Z,29.51
2022-08-08T17:57:37.611Z,29.42
2022-08-08T18:00:19.342Z,29.50
2022-08-08T18:02:58.094Z,29.48
2022-08-08T18:05:49.516Z,29.54
2022-08-08T18:08:37.942Z,29.37
2022-08-08T18:11:11.728Z,29.34
2022-08-08T18:13:42.674Z,29.41
2022-08-08T18:16:11.607Z,29.35
2022-08-08T18:18:42.821Z,29.45
2022-08-08T18:21:34.813Z,29.26
2022-08-08T18:24:02.870Z,29.24
2022-08-08T18:26:30.713Z,29.24
2022-08-08T18:28:58.481Z,28.95
2022-08-08T18:31:28.422Z,29.06
2022-08-08T18:34:11.221Z,29.18
2022-08-08T18:36:45.509Z,29.11
2022-08-08T18:39:27.715Z,28.66
2022-08-08T18:42:03.076Z,28.95
2022-08-08T18:44:34.737Z,28.88
2022-08-08T18:47:04.597Z,28.57
2022-08-08T18:49:54.704Z,28.51
2022-08-08T18:52:23.617Z,28.50
2022-08-08T18:55:00.808Z,28.47
2022-08-08T18:57:41.718Z,28.29
2022-08-08T19:00:15.567Z,28.42
2022-08-08T19:02:48.497Z,28.49
2022-08-08T19:05:32.227Z,28.43
2022-08-08T19:08:24.890Z,27.96
2022-08-08T19:10:57.690Z,27.99
2022-08-08T19:13:38.299Z,27.73
2022-08-08T19:16:18.273Z,27.59
2022-08-08T19:18:54.491Z,27.78
2022-08-08T19:21:31.085Z,27.71
2022-08-08T19:24:05.293Z,27.33
2022-08-08T19:26:34.566Z,27.43
2022-08-08T19:29:02.375Z,27.44
2022-08-08T19:31:34.925Z,27.44
2022-08-08T19:34:35.619Z,27.19
2022-08-08T19:36:53.433Z,27.32
2022-08-08T19:39:24.697Z,27.12
2022-08-08T19:41:52.615Z,27.16
2022-08-08T19:44:42.397Z,27.07
2022-08-08T19:47:08.277Z,26.86
2022-08-08T19:49:38.062Z,26.84
2022-08-08T19:52:07.231Z,26.86
2022-08-08T19:54:39.658Z,26.66
2022-08-08T19:57:07.965Z,26.41
2022-08-08T19:59:35.785Z,26.30
2022-08-08T20:02:05.327Z,26.50
2022-08-08T20:04:33.548Z,26.34
2022-08-08T20:07:05.493Z,26.12
2022-08-08T20:09:56.209Z,26.21
2022-08-08T20:12:33.044Z,25.91
2022-08-08T20:15:15.072Z,26.15
2022-08-08T20:17:45.981Z,26.01
2022-08-08T20:20:18.947Z,25.87
2022-08-08T20:22:52.640Z,25.73
2022-08-08T20:25:29.810Z,25.52
2022-08-08T20:28:02.155Z,25.61
2022-08-08T20:30:53.309Z,25.63
2022-08-08T20:35:57.987Z,25.57
2022-08-08T20:38:32.837Z,25.50
2022-08-08T20:41:16.982Z,25.56
2022-08-08T20:43:48.118Z,25.36
2022-08-08T20:46:20.673Z,25.13
2022-08-08T20:48:51.114Z,25.11
2022-08-08T20:51:20.848Z,25.15
2022-08-08T20:54:01.104Z,25.15
2022-08-08T20:56:35.699Z,24.81
2022-08-08T20:59:05.838Z,24.90
2022-08-08T21:02:05.542Z,24.88
2022-08-08T21:04:23.329Z,24.89
2022-08-08T21:06:53.107Z,24.75
2022-08-08T21:09:21.865Z,24.73
2022-08-08T21:12:02.740Z,24.73
2022-08-08T21:14:33.478Z,24.69
2022-08-08T21:17:03.094Z,24.51
2022-08-08T21:19:44.258Z,24.54
2022-08-08T21:22:14.634Z,24.41
2022-08-08T21:24:52.734Z,24.21
2022-08-08T21:28:05.024Z,24.33
2022-08-08T21:30:19.254Z,24.30
2022-08-08T21:32:52.242Z,24.07
2022-08-08T21:36:16.629Z,24.31
2022-08-08T21:38:16.213Z,23.95
2022-08-08T21:40:55.947Z,24.03
2022-08-08T21:43:30.967Z,23.85
2022-08-08T21:48:06.842Z,23.91
2022-08-08T21:48:51.768Z,24.00
2022-08-08T21:54:31.174Z,23.88
2022-08-08T21:54:33.384Z,23.53
2022-08-08T21:56:59.206Z,23.76
2022-08-08T22:00:01.850Z,23.76
2022-08-08T22:02:19.437Z,23.71
2022-08-08T22:04:52.533Z,23.69
2022-08-08T22:07:20.384Z,23.60
2022-08-08T22:09:54.953Z,23.67
2022-08-08T22:12:22.707Z,23.74
2022-08-08T22:14:54.443Z,23.67
2022-08-08T22:17:22.196Z,23.58
2022-08-08T22:20:12.420Z,23.32
2022-08-08T22:22:38.731Z,23.30
2022-08-08T22:25:17.760Z,23.38
2022-08-08T22:28:03.562Z,23.37
2022-08-08T22:30:34.168Z,23.32
2022-08-08T22:33:03.358Z,23.11
2022-08-08T22:36:04.832Z,23.23
2022-08-08T22:38:47.950Z,23.17
2022-08-08T22:41:20.948Z,22.81
2022-08-08T22:44:05.437Z,23.16
2022-08-08T22:46:38.920Z,23.27
2022-08-08T22:49:09.045Z,23.05
2022-08-08T22:51:46.106Z,23.03
2022-08-08T22:54:32.638Z,23.10
2022-08-08T22:57:11.591Z,22.96
2022-08-08T22:59:58.971Z,23.05
2022-08-08T23:02:29.619Z,22.84
2022-08-08T23:05:04.796Z,22.78
2022-08-08T23:07:50.886Z,22.95
2022-08-08T23:10:25.279Z,22.68
2022-08-08T23:12:54.642Z,22.86
2022-08-08T23:16:41.764Z,22.75
2022-08-08T23:18:12.609Z,22.75
2022-08-08T23:20:43.563Z,22.87
2022-08-08T23:23:12.489Z,22.79
2022-08-08T23:25:48.025Z,22.83
2022-08-08T23:28:18.956Z,22.75
2022-08-08T23:30:47.597Z,22.60
2022-08-08T23:33:21.354Z,22.57
2022-08-08T23:36:08.312Z,22.42
2022-08-08T23:38:44.086Z,22.48
2022-08-08T23:41:23.131Z,22.55
2022-08-08T23:43:54.403Z,22.37
2022-08-08T23:49:02.103Z,22.39
2022-08-08T23:49:18.806Z,22.41
2022-08-08T23:52:07.191Z,22.54
2022-08-08T23:54:42.126Z,22.47
2022-08-08T23:57:27.496Z,22.16
